createdAt,value
2019-01-11T00:02:45.035Z,69.67
2019-01-11T00:07:48.780Z,73.23
2019-01-11T00:12:52.523Z,68.60
2019-01-11T00:17:56.343Z,71.00
2019-01-11T00:23:00.011Z,72.03
2019-01-11T00:28:03.780Z,70.37
2019-01-11T00:33:07.580Z,66.57
2019-01-11T00:38:11.381Z,63.77
2019-01-11T00:43:15.569Z,58.77
2019-01-11T00:48:19.354Z,61.63
2019-01-11T00:53:23.067Z,53.47
2019-01-11T00:58:26.710Z,46.83
2019-01-11T01:03:30.466Z,46.70
2019-01-11T01:08:35.067Z,40.23
2019-01-11T01:13:38.792Z,37.70
2019-01-11T01:18:42.485Z,37.80
2019-01-11T01:23:46.239Z,36.63
2019-01-11T01:28:50.036Z,37.30
2019-01-11T01:33:54.030Z,32.90
2019-01-11T01:38:57.700Z,31.70
2019-01-11T01:44:01.370Z,30.20
2019-01-11T01:49:05.136Z,28.17
2019-01-11T01:54:08.849Z,29.57
2019-01-11T01:59:12.606Z,25.77
2019-01-11T02:04:16.284Z,26.17
2019-01-11T02:09:19.939Z,23.33
2019-01-11T02:14:23.671Z,22.00
2019-01-11T02:19:32.952Z,27.90
2019-01-11T02:24:32.968Z,17.20
2019-01-11T02:29:36.738Z,17.03
2019-01-11T02:34:40.431Z,16.10
2019-01-11T02:39:44.507Z,15.80
2019-01-11T02:44:48.513Z,15.73
2019-01-11T02:49:52.611Z,17.20
2019-01-11T02:54:56.298Z,15.17
2019-01-11T03:00:00.074Z,17.33
2019-01-11T03:05:03.777Z,14.97
2019-01-11T03:10:11.202Z,14.57
2019-01-11T03:15:15.437Z,15.13
2019-01-11T03:20:19.321Z,15.03
2019-01-11T03:25:23.126Z,15.60
2019-01-11T03:30:26.903Z,12.50
2019-01-11T03:35:30.782Z,14.07
2019-01-11T03:40:34.520Z,14.30
2019-01-11T03:45:38.252Z,12.13
2019-01-11T03:50:42.046Z,11.40
2019-01-11T03:55:45.759Z,12.33
2019-01-11T04:00:49.438Z,12.40
2019-01-11T04:05:53.205Z,13.30
2019-01-11T04:10:56.952Z,11.03
2019-01-11T04:16:00.628Z,9.73
2019-01-11T04:21:04.386Z,8.80
2019-01-11T04:26:08.112Z,12.40
2019-01-11T04:31:11.751Z,9.83
2019-01-11T04:36:15.430Z,9.50
2019-01-11T04:41:19.173Z,8.80
2019-01-11T04:46:22.918Z,9.30
2019-01-11T04:51:26.699Z,10.43
2019-01-11T04:56:30.486Z,9.00
2019-01-11T05:01:34.297Z,10.23
2019-01-11T05:06:38.193Z,8.53
2019-01-11T05:11:41.952Z,10.07
2019-01-11T05:16:45.733Z,8.07
2019-01-11T05:21:49.493Z,11.53
2019-01-11T05:26:53.381Z,9.50
2019-01-11T05:31:57.270Z,7.63
2019-01-11T05:37:01.059Z,8.27
2019-01-11T05:42:04.864Z,8.73
2019-01-11T05:47:08.843Z,8.87
2019-01-11T05:52:12.547Z,8.73
2019-01-11T05:57:16.707Z,6.83
2019-01-11T06:02:20.777Z,9.20
2019-01-11T06:07:27.043Z,8.70
2019-01-11T06:12:30.897Z,8.83
2019-01-11T06:17:34.724Z,9.60
2019-01-11T06:22:38.427Z,7.70
2019-01-11T06:27:42.183Z,7.93
2019-01-11T06:32:45.862Z,7.27
2019-01-11T06:37:49.617Z,8.60
2019-01-11T06:42:53.357Z,7.03
2019-01-11T06:47:57.193Z,6.90
2019-01-11T06:53:01.237Z,7.47
2019-01-11T06:58:04.892Z,6.87
2019-01-11T07:03:08.610Z,6.67
2019-01-11T07:08:12.339Z,6.70
2019-01-11T07:13:16.318Z,9.77
2019-01-11T07:18:19.975Z,6.37
2019-01-11T07:23:23.812Z,6.53
2019-01-11T07:28:27.968Z,5.30
2019-01-11T07:33:31.733Z,5.37
2019-01-11T07:38:35.503Z,7.00
2019-01-11T07:43:39.223Z,8.40
2019-01-11T07:48:43.112Z,6.80
2019-01-11T07:53:46.939Z,7.40
2019-01-11T07:58:50.800Z,5.90
2019-01-11T08:03:54.680Z,8.50
2019-01-11T08:08:58.499Z,7.07
2019-01-11T08:14:02.279Z,7.47
2019-01-11T08:19:06.178Z,6.97
2019-01-11T08:24:10.023Z,5.97
2019-01-11T08:29:13.884Z,5.57
2019-01-11T08:34:17.779Z,7.53
2019-01-11T08:39:21.611Z,5.33
2019-01-11T08:44:25.423Z,7.50
2019-01-11T08:49:29.158Z,4.23
2019-01-11T08:54:32.886Z,5.50
2019-01-11T08:59:36.906Z,6.30
2019-01-11T09:04:40.926Z,5.67
2019-01-11T09:09:44.794Z,7.97
2019-01-11T09:14:50.429Z,4.73
2019-01-11T09:19:54.261Z,4.90
2019-01-11T09:24:58.273Z,6.23
2019-01-11T09:30:02.134Z,4.83
2019-01-11T09:35:06.334Z,16.93
2019-01-11T09:40:10.198Z,23.30
2019-01-11T09:45:14.023Z,32.10
2019-01-11T09:50:20.648Z,32.07
2019-01-11T09:55:24.794Z,32.60
2019-01-11T10:00:28.620Z,28.30
2019-01-11T10:05:32.582Z,25.53
2019-01-11T10:10:36.384Z,20.93
2019-01-11T10:15:40.199Z,20.20
2019-01-11T10:20:44.010Z,18.37
2019-01-11T10:25:47.839Z,18.93
2019-01-11T10:30:52.000Z,18.83
2019-01-11T10:35:55.923Z,16.97
2019-01-11T10:40:59.713Z,18.03
2019-01-11T10:46:09.060Z,14.13
2019-01-11T10:51:12.883Z,21.60
2019-01-11T10:56:16.712Z,19.10
2019-01-11T11:01:20.498Z,22.23
2019-01-11T11:06:24.491Z,20.40
2019-01-11T11:11:28.286Z,16.50
2019-01-11T11:16:32.990Z,17.10
2019-01-11T11:21:37.271Z,18.77
2019-01-11T11:26:41.099Z,15.57
2019-01-11T11:31:44.912Z,15.07
2019-01-11T11:36:48.822Z,11.10
2019-01-11T11:41:52.976Z,18.63
2019-01-11T11:46:56.771Z,15.20
2019-01-11T11:52:00.456Z,11.47
2019-01-11T11:57:04.226Z,13.43
2019-01-11T12:02:10.028Z,11.50
2019-01-11T12:07:13.813Z,15.80
2019-01-11T12:12:17.586Z,10.67
2019-01-11T12:17:21.342Z,15.43
2019-01-11T12:22:25.078Z,13.90
2019-01-11T12:27:28.966Z,13.70
2019-01-11T12:32:32.702Z,11.77
2019-01-11T12:37:36.561Z,11.53
2019-01-11T12:42:40.294Z,11.00
2019-01-11T12:47:44.177Z,10.53
2019-01-11T12:52:47.969Z,10.53
2019-01-11T12:57:51.729Z,9.60
2019-01-11T13:02:55.541Z,10.13
2019-01-11T13:07:59.412Z,9.27
2019-01-11T13:13:03.153Z,9.20
2019-01-11T13:18:06.897Z,11.17
2019-01-11T13:23:10.660Z,5.93
2019-01-11T13:28:14.387Z,8.90
2019-01-11T13:33:18.620Z,6.97
2019-01-11T13:38:22.529Z,10.70
2019-01-11T13:43:26.275Z,6.73
2019-01-11T13:48:30.136Z,19.20
2019-01-11T13:53:33.905Z,6.70
2019-01-11T13:58:37.653Z,8.50
2019-01-11T14:03:42.696Z,8.87
2019-01-11T14:08:46.431Z,4.47
2019-01-11T14:13:50.204Z,5.50
2019-01-11T14:18:54.017Z,6.63
2019-01-11T14:23:57.762Z,6.00
2019-01-11T14:29:01.663Z,7.60
2019-01-11T14:34:05.350Z,5.30
2019-01-11T14:39:09.388Z,4.83
2019-01-11T14:44:13.163Z,4.47
2019-01-11T14:49:16.933Z,3.53
2019-01-11T14:54:20.747Z,3.83
2019-01-11T14:59:24.712Z,3.83
2019-01-11T15:04:28.390Z,4.80
2019-01-11T15:09:32.118Z,3.43
2019-01-11T15:14:37.192Z,4.90
2019-01-11T15:19:40.958Z,2.77
2019-01-11T15:24:44.710Z,3.50
2019-01-11T15:29:48.473Z,5.57
2019-01-11T15:34:52.195Z,4.80
2019-01-11T15:39:56.071Z,3.97
2019-01-11T15:45:00.155Z,3.90
2019-01-11T15:50:03.911Z,4.30
2019-01-11T15:55:09.601Z,4.53
2019-01-11T16:00:19.526Z,5.70
2019-01-11T16:05:23.292Z,3.87
2019-01-11T16:10:27.043Z,3.73
2019-01-11T16:15:58.922Z,9.53
2019-01-11T16:21:02.710Z,7.17
2019-01-11T16:26:06.615Z,4.23
2019-01-11T16:31:10.321Z,4.60
2019-01-11T16:36:14.211Z,6.00
2019-01-11T16:41:18.195Z,4.60
2019-01-11T16:46:22.049Z,4.00
2019-01-11T16:51:25.896Z,5.97
2019-01-11T16:56:29.693Z,4.63
2019-01-11T17:01:33.543Z,7.00
2019-01-11T17:06:37.303Z,8.50
2019-01-11T17:11:41.104Z,7.13
2019-01-11T17:16:44.895Z,8.33
2019-01-11T17:21:48.709Z,7.57
2019-01-11T17:26:52.526Z,10.33
2019-01-11T17:31:56.231Z,7.93
2019-01-11T17:37:19.319Z,9.13
2019-01-11T17:42:23.184Z,12.40
2019-01-11T17:47:46.303Z,10.70
2019-01-11T17:52:50.050Z,12.47
2019-01-11T17:57:53.837Z,12.43
2019-01-11T18:02:57.598Z,11.60
2019-01-11T18:08:01.340Z,10.53
2019-01-11T18:13:05.636Z,10.30
2019-01-11T18:18:09.450Z,8.67
2019-01-11T18:23:13.286Z,7.40
2019-01-11T18:28:17.066Z,8.30
2019-01-11T18:33:20.921Z,9.03
2019-01-11T18:38:24.879Z,7.63
2019-01-11T18:43:28.577Z,6.73
2019-01-11T18:48:32.349Z,9.40
2019-01-11T18:53:36.147Z,8.17
2019-01-11T18:58:39.930Z,7.20
2019-01-11T19:03:43.686Z,8.90
2019-01-11T19:08:47.567Z,17.30
2019-01-11T19:13:51.287Z,13.07
2019-01-11T19:18:55.383Z,12.93
2019-01-11T19:23:59.237Z,10.43
2019-01-11T19:29:03.044Z,10.67
2019-01-11T19:34:06.873Z,11.40
2019-01-11T19:39:10.921Z,13.60
2019-01-11T19:44:14.715Z,9.43
2019-01-11T19:49:18.494Z,10.10
2019-01-11T19:54:22.348Z,14.23
2019-01-11T19:59:26.453Z,14.67
2019-01-11T20:04:30.310Z,10.30
2019-01-11T20:09:34.437Z,14.20
2019-01-11T20:14:38.276Z,9.50
2019-01-11T20:19:42.207Z,10.50
2019-01-11T20:24:47.197Z,11.17
2019-01-11T20:29:51.038Z,7.50
2019-01-11T20:34:54.782Z,13.80
2019-01-11T20:39:58.497Z,11.77
2019-01-11T20:45:03.313Z,11.00
2019-01-11T20:50:09.140Z,12.20
2019-01-11T20:55:12.876Z,10.57
2019-01-11T21:00:19.530Z,13.73
2019-01-11T21:05:23.363Z,14.17
2019-01-11T21:10:27.091Z,19.73
2019-01-11T21:15:30.841Z,16.87
2019-01-11T21:20:34.646Z,17.50
2019-01-11T21:25:38.502Z,30.30
2019-01-11T21:30:42.335Z,10.20
2019-01-11T21:35:46.171Z,13.60
2019-01-11T21:40:50.048Z,11.87
2019-01-11T21:45:53.794Z,9.13
2019-01-11T21:50:57.663Z,8.03
2019-01-11T21:56:01.567Z,9.40
2019-01-11T22:01:05.458Z,9.87
2019-01-11T22:06:09.250Z,7.40
2019-01-11T22:11:12.982Z,7.87
2019-01-11T22:16:16.812Z,13.80
2019-01-11T22:21:20.531Z,11.43
2019-01-11T22:26:24.229Z,17.33
2019-01-11T22:31:27.978Z,13.70
2019-01-11T22:36:31.804Z,11.10
2019-01-11T22:41:35.654Z,12.87
2019-01-11T22:46:39.400Z,13.70
2019-01-11T22:51:44.531Z,14.57
2019-01-11T22:56:48.508Z,18.37
2019-01-11T23:02:05.055Z,15.77
2019-01-11T23:07:37.573Z,19.27
2019-01-11T23:12:50.082Z,27.90
2019-01-11T23:18:14.779Z,24.83
2019-01-11T23:23:18.575Z,23.63
2019-01-11T23:28:22.298Z,22.70
2019-01-11T23:33:25.980Z,16.47
2019-01-11T23:38:29.720Z,20.17
2019-01-11T23:43:33.544Z,21.80
2019-01-11T23:48:37.266Z,16.13
2019-01-11T23:53:40.950Z,17.13
2019-01-11T23:58:44.716Z,19.90
